createdAt,value
2019-01-12T00:00:21.715Z,7.40
2019-01-12T00:01:21.704Z,8.50
2019-01-12T00:02:21.695Z,9.10
2019-01-12T00:03:21.699Z,9.40
2019-01-12T00:04:21.808Z,7.00
2019-01-12T00:05:21.663Z,6.70
2019-01-12T00:06:21.649Z,10.80
2019-01-12T00:07:21.639Z,8.70
2019-01-12T00:08:21.629Z,6.70
2019-01-12T00:09:21.699Z,6.60
2019-01-12T00:10:21.612Z,6.60
2019-01-12T00:11:21.601Z,5.60
2019-01-12T00:12:21.590Z,7.40
2019-01-12T00:13:21.634Z,7.60
2019-01-12T00:14:21.566Z,6.60
2019-01-12T00:15:21.582Z,6.30
2019-01-12T00:16:21.592Z,7.30
2019-01-12T00:17:21.531Z,7.20
2019-01-12T00:18:21.536Z,6.80
2019-01-12T00:19:21.515Z,8.30
2019-01-12T00:20:21.528Z,6.00
2019-01-12T00:21:21.488Z,7.70
2019-01-12T00:22:21.517Z,5.40
2019-01-12T00:23:21.463Z,6.90
2019-01-12T00:24:21.459Z,8.70
2019-01-12T00:25:21.461Z,7.40
2019-01-12T00:26:21.432Z,6.10
2019-01-12T00:27:21.515Z,7.10
2019-01-12T00:28:21.419Z,7.80
2019-01-12T00:29:21.404Z,7.60
2019-01-12T00:30:21.432Z,7.00
2019-01-12T00:31:21.385Z,7.80
2019-01-12T00:32:21.370Z,8.90
2019-01-12T00:33:21.360Z,8.80
2019-01-12T00:34:21.353Z,7.00
2019-01-12T00:35:21.358Z,7.20
2019-01-12T00:36:21.329Z,8.40
2019-01-12T00:37:21.320Z,6.50
2019-01-12T00:38:21.319Z,6.70
2019-01-12T00:39:21.305Z,7.10
2019-01-12T00:40:21.315Z,5.70
2019-01-12T00:41:21.293Z,8.50
2019-01-12T00:42:21.265Z,6.80
2019-01-12T00:43:21.256Z,7.00
2019-01-12T00:44:21.241Z,7.30
2019-01-12T00:45:21.254Z,6.10
2019-01-12T00:46:21.226Z,8.50
2019-01-12T00:47:21.211Z,8.50
2019-01-12T00:48:21.202Z,8.70
2019-01-12T00:49:21.191Z,7.40
2019-01-12T00:50:21.181Z,7.00
2019-01-12T00:51:21.194Z,7.50
2019-01-12T00:52:21.160Z,6.50
2019-01-12T00:53:21.156Z,6.30
2019-01-12T00:54:21.135Z,9.10
2019-01-12T00:55:21.121Z,8.00
2019-01-12T00:56:21.131Z,6.70
2019-01-12T00:57:21.115Z,5.80
2019-01-12T00:58:21.094Z,9.20
2019-01-12T00:59:21.082Z,7.90
2019-01-12T01:00:21.077Z,6.30
2019-01-12T01:01:21.077Z,9.00
2019-01-12T01:02:21.053Z,6.70
2019-01-12T01:03:21.034Z,8.60
2019-01-12T01:04:21.035Z,7.30
2019-01-12T01:05:21.021Z,7.10
2019-01-12T01:06:21.024Z,8.20
2019-01-12T01:07:20.995Z,9.80
2019-01-12T01:08:20.988Z,7.20
2019-01-12T01:09:20.987Z,7.60
2019-01-12T01:10:20.964Z,7.60
2019-01-12T01:11:20.972Z,6.00
2019-01-12T01:12:20.942Z,5.50
2019-01-12T01:13:20.932Z,8.20
2019-01-12T01:14:20.921Z,7.30
2019-01-12T01:15:20.909Z,6.90
2019-01-12T01:16:20.915Z,8.00
2019-01-12T01:17:20.892Z,6.90
2019-01-12T01:18:20.880Z,6.40
2019-01-12T01:19:20.870Z,8.20
2019-01-12T01:20:20.863Z,8.80
2019-01-12T01:21:20.861Z,8.50
2019-01-12T01:22:20.836Z,7.70
2019-01-12T01:23:20.827Z,8.80
2019-01-12T01:24:20.815Z,7.40
2019-01-12T01:25:20.815Z,7.60
2019-01-12T01:26:20.836Z,6.70
2019-01-12T01:27:20.797Z,5.70
2019-01-12T01:28:20.786Z,7.20
2019-01-12T01:29:20.768Z,7.50
2019-01-12T01:30:20.757Z,6.00
2019-01-12T01:31:20.752Z,6.50
2019-01-12T01:32:20.748Z,7.20
2019-01-12T01:33:27.667Z,7.30
2019-01-12T01:34:21.707Z,8.00
2019-01-12T01:35:20.701Z,6.50
2019-01-12T01:36:20.694Z,6.80
2019-01-12T01:37:20.696Z,7.10
2019-01-12T01:38:20.675Z,9.00
2019-01-12T01:39:20.663Z,8.70
2019-01-12T01:40:20.647Z,7.40
2019-01-12T01:41:20.636Z,8.20
2019-01-12T01:42:20.645Z,8.10
2019-01-12T01:43:20.619Z,8.40
2019-01-12T01:44:20.607Z,8.50
2019-01-12T01:45:20.598Z,6.70
2019-01-12T01:46:20.585Z,6.80
2019-01-12T01:47:20.591Z,7.80
2019-01-12T01:48:20.569Z,6.80
2019-01-12T01:49:20.557Z,7.00
2019-01-12T01:50:20.545Z,5.90
2019-01-12T01:51:20.535Z,7.90
2019-01-12T01:52:20.541Z,7.60
2019-01-12T01:53:20.510Z,7.60
2019-01-12T01:54:20.511Z,7.10
2019-01-12T01:55:20.490Z,8.10
2019-01-12T01:56:20.485Z,6.80
2019-01-12T01:57:20.470Z,8.40
2019-01-12T01:58:20.479Z,7.90
2019-01-12T01:59:20.457Z,6.70
2019-01-12T02:00:20.440Z,6.90
2019-01-12T02:01:20.429Z,6.40
2019-01-12T02:02:20.423Z,8.90
2019-01-12T02:03:20.423Z,9.10
2019-01-12T02:04:20.399Z,7.30
2019-01-12T02:05:20.392Z,8.70
2019-01-12T02:06:20.394Z,7.30
2019-01-12T02:07:20.371Z,8.20
2019-01-12T02:08:20.411Z,7.40
2019-01-12T02:09:20.345Z,6.40
2019-01-12T02:10:20.339Z,6.10
2019-01-12T02:11:20.325Z,6.70
2019-01-12T02:12:20.315Z,6.70
2019-01-12T02:13:20.320Z,8.60
2019-01-12T02:14:20.296Z,7.00
2019-01-12T02:15:20.285Z,7.90
2019-01-12T02:16:20.278Z,7.70
2019-01-12T02:17:20.268Z,7.10
2019-01-12T02:18:20.268Z,7.00
2019-01-12T02:19:20.244Z,8.20
2019-01-12T02:20:20.236Z,7.90
2019-01-12T02:21:20.227Z,6.90
2019-01-12T02:22:20.219Z,8.00
2019-01-12T02:23:20.220Z,9.50
2019-01-12T02:24:20.195Z,7.80
2019-01-12T02:25:20.182Z,8.00
2019-01-12T02:26:20.171Z,8.30
2019-01-12T02:27:20.165Z,5.60
2019-01-12T02:28:20.200Z,7.30
2019-01-12T02:29:20.151Z,6.00
2019-01-12T02:30:20.132Z,7.10
2019-01-12T02:31:20.125Z,7.90
2019-01-12T02:32:20.116Z,8.40
2019-01-12T02:33:20.108Z,7.70
2019-01-12T02:34:20.105Z,7.80
2019-01-12T02:35:20.084Z,7.10
2019-01-12T02:36:20.075Z,6.90
2019-01-12T02:37:20.062Z,6.60
2019-01-12T02:38:20.056Z,7.70
2019-01-12T02:39:20.057Z,7.00
2019-01-12T02:40:20.030Z,7.80
2019-01-12T02:41:20.017Z,7.40
2019-01-12T02:42:20.014Z,5.80
2019-01-12T02:43:20.003Z,7.70
2019-01-12T02:44:20.005Z,7.50
2019-01-12T02:45:19.983Z,7.50
2019-01-12T02:46:19.967Z,7.30
2019-01-12T02:47:19.965Z,7.70
2019-01-12T02:48:19.946Z,5.50
2019-01-12T02:49:19.953Z,7.40
2019-01-12T02:50:19.926Z,8.70
2019-01-12T02:51:19.915Z,6.40
2019-01-12T02:52:19.904Z,6.40
2019-01-12T02:53:19.897Z,6.40
2019-01-12T02:54:19.895Z,5.90
2019-01-12T02:55:19.874Z,8.50
2019-01-12T02:56:19.861Z,7.80
2019-01-12T02:57:19.852Z,7.10
2019-01-12T02:58:19.842Z,6.50
2019-01-12T02:59:19.867Z,7.30
2019-01-12T03:00:19.823Z,7.10
2019-01-12T03:01:19.811Z,6.70
2019-01-12T03:02:19.799Z,7.80
2019-01-12T03:03:19.795Z,7.20
2019-01-12T03:04:19.782Z,6.00
2019-01-12T03:05:19.777Z,8.10
2019-01-12T03:06:19.756Z,7.00
2019-01-12T03:07:19.738Z,6.50
2019-01-12T03:08:19.734Z,8.10
2019-01-12T03:09:19.718Z,6.90
2019-01-12T03:10:19.725Z,7.30
2019-01-12T03:11:19.710Z,7.70
2019-01-12T03:12:19.692Z,7.40
2019-01-12T03:13:19.676Z,7.40
2019-01-12T03:14:19.669Z,7.70
2019-01-12T03:15:19.681Z,7.10
2019-01-12T03:16:19.652Z,6.10
2019-01-12T03:17:19.634Z,8.40
2019-01-12T03:18:19.628Z,7.80
2019-01-12T03:19:19.626Z,5.50
2019-01-12T03:20:19.637Z,8.00
2019-01-12T03:21:19.596Z,6.80
2019-01-12T03:22:19.580Z,6.50
2019-01-12T03:23:19.571Z,6.90
2019-01-12T03:24:19.563Z,7.90
2019-01-12T03:25:19.549Z,8.30
2019-01-12T03:26:19.553Z,6.60
2019-01-12T03:27:19.528Z,8.70
2019-01-12T03:28:19.520Z,9.40
2019-01-12T03:29:19.509Z,6.50
2019-01-12T03:30:19.525Z,6.90
2019-01-12T03:31:19.498Z,8.60
2019-01-12T03:32:19.482Z,7.50
2019-01-12T03:33:19.468Z,9.10
2019-01-12T03:34:19.459Z,8.70
2019-01-12T03:35:19.467Z,5.60
2019-01-12T03:36:19.452Z,5.80
2019-01-12T03:37:19.425Z,8.30
2019-01-12T03:38:19.412Z,6.10
2019-01-12T03:39:19.408Z,6.60
2019-01-12T03:40:19.403Z,8.00
2019-01-12T03:41:19.398Z,7.20
2019-01-12T03:42:19.371Z,6.80
2019-01-12T03:43:19.361Z,6.20
2019-01-12T03:44:19.352Z,9.80
2019-01-12T03:45:19.386Z,9.30
2019-01-12T03:46:19.349Z,7.20
2019-01-12T03:47:19.320Z,5.80
2019-01-12T03:48:19.312Z,7.40
2019-01-12T03:49:19.294Z,6.90
2019-01-12T03:50:19.288Z,6.10
2019-01-12T03:51:19.301Z,5.70
2019-01-12T03:52:19.270Z,8.30
2019-01-12T03:53:19.253Z,9.00
2019-01-12T03:54:19.242Z,7.00
2019-01-12T03:55:25.531Z,6.90
2019-01-12T03:56:20.238Z,7.40
2019-01-12T03:57:19.210Z,7.10
2019-01-12T03:58:19.200Z,6.50
2019-01-12T03:59:19.190Z,7.00
2019-01-12T04:00:19.175Z,6.30
2019-01-12T04:01:19.165Z,6.40
2019-01-12T04:02:19.166Z,8.10
2019-01-12T04:03:19.149Z,8.10
2019-01-12T04:04:19.139Z,7.90
2019-01-12T04:05:19.126Z,7.60
2019-01-12T04:06:19.117Z,7.40
2019-01-12T04:07:19.119Z,7.10
2019-01-12T04:08:19.096Z,8.00
2019-01-12T04:09:19.081Z,6.80
2019-01-12T04:10:19.071Z,7.00
2019-01-12T04:11:19.060Z,8.40
2019-01-12T04:12:19.071Z,8.00
2019-01-12T04:13:19.037Z,9.00
2019-01-12T04:14:19.028Z,6.90
2019-01-12T04:15:19.022Z,5.80
2019-01-12T04:16:19.005Z,5.40
2019-01-12T04:17:19.024Z,7.20
2019-01-12T04:18:18.982Z,7.60
2019-01-12T04:19:18.974Z,6.70
2019-01-12T04:20:18.965Z,7.60
2019-01-12T04:21:18.951Z,7.40
2019-01-12T04:22:18.942Z,7.20
2019-01-12T04:23:18.947Z,6.40
2019-01-12T04:24:18.920Z,8.30
2019-01-12T04:25:18.908Z,9.20
2019-01-12T04:26:18.902Z,7.70
2019-01-12T04:27:18.890Z,8.00
2019-01-12T04:28:18.887Z,7.20
2019-01-12T04:29:18.865Z,7.40
2019-01-12T04:30:18.856Z,6.80
2019-01-12T04:31:18.851Z,5.10
2019-01-12T04:32:18.840Z,7.00
2019-01-12T04:33:18.839Z,6.10
2019-01-12T04:34:18.809Z,7.30
2019-01-12T04:35:18.801Z,7.20
2019-01-12T04:36:18.791Z,7.00
2019-01-12T04:37:18.774Z,5.90
2019-01-12T04:38:18.776Z,6.90
2019-01-12T04:39:18.754Z,6.40
2019-01-12T04:40:18.747Z,7.10
2019-01-12T04:41:18.739Z,8.00
2019-01-12T04:42:18.724Z,6.50
2019-01-12T04:43:18.746Z,6.30
2019-01-12T04:44:18.708Z,8.40
2019-01-12T04:45:18.691Z,5.70
2019-01-12T04:46:18.679Z,7.90
2019-01-12T04:47:18.670Z,8.10
2019-01-12T04:48:19.659Z,6.50
2019-01-12T04:49:18.649Z,5.60
2019-01-12T04:50:18.638Z,5.70
2019-01-12T04:51:18.624Z,5.80
2019-01-12T04:52:18.617Z,7.30
2019-01-12T04:53:18.636Z,6.40
2019-01-12T04:54:18.594Z,7.40
2019-01-12T04:55:18.587Z,7.20
2019-01-12T04:56:18.570Z,7.80
2019-01-12T04:57:18.557Z,6.30
2019-01-12T04:58:18.563Z,7.30
2019-01-12T04:59:18.537Z,7.00
2019-01-12T05:00:18.533Z,6.60
2019-01-12T05:01:18.514Z,6.30
2019-01-12T05:02:18.511Z,7.30
2019-01-12T05:03:18.523Z,6.70
2019-01-12T05:04:18.493Z,6.10
2019-01-12T05:05:18.486Z,5.80
2019-01-12T05:06:18.460Z,7.00
2019-01-12T05:07:18.453Z,7.00
2019-01-12T05:08:18.443Z,8.20
2019-01-12T05:09:18.451Z,6.40
2019-01-12T05:10:18.530Z,5.70
2019-01-12T05:11:18.411Z,6.20
2019-01-12T05:12:18.403Z,8.30
2019-01-12T05:13:18.397Z,7.20
2019-01-12T05:14:18.390Z,6.80
2019-01-12T05:15:18.365Z,5.30
2019-01-12T05:16:19.308Z,5.60
2019-01-12T05:17:18.844Z,6.70
2019-01-12T05:18:18.336Z,6.60
2019-01-12T05:19:18.347Z,6.40
2019-01-12T05:20:18.314Z,7.60
2019-01-12T05:21:18.310Z,5.90
2019-01-12T05:22:18.296Z,7.80
2019-01-12T05:23:18.288Z,6.40
2019-01-12T05:24:18.288Z,5.10
2019-01-12T05:25:18.271Z,7.60
2019-01-12T05:26:18.252Z,6.00
2019-01-12T05:27:18.254Z,6.50
2019-01-12T05:28:18.231Z,6.30
2019-01-12T05:29:18.250Z,7.50
2019-01-12T05:30:18.206Z,6.10
2019-01-12T05:31:18.199Z,6.20
2019-01-12T05:32:18.188Z,7.40
2019-01-12T05:33:18.181Z,6.10
2019-01-12T05:34:18.175Z,6.90
2019-01-12T05:35:18.172Z,4.70
2019-01-12T05:36:18.150Z,6.50
2019-01-12T05:37:18.143Z,5.40
2019-01-12T05:38:18.130Z,5.00
2019-01-12T05:39:18.114Z,6.20
2019-01-12T05:40:18.123Z,4.70
2019-01-12T05:41:18.096Z,5.40
2019-01-12T05:42:18.081Z,5.60
2019-01-12T05:43:18.069Z,6.80
2019-01-12T05:44:18.063Z,6.20
2019-01-12T05:45:18.062Z,6.40
2019-01-12T05:46:18.045Z,6.60
2019-01-12T05:47:18.033Z,6.50
2019-01-12T05:48:18.020Z,5.90
2019-01-12T05:49:18.018Z,5.10
2019-01-12T05:50:18.011Z,5.90
2019-01-12T05:51:17.997Z,8.00
2019-01-12T05:52:18.055Z,6.10
2019-01-12T05:53:17.971Z,6.10
2019-01-12T05:54:21.821Z,5.40
2019-01-12T05:55:17.972Z,5.70
2019-01-12T05:56:17.939Z,7.10
2019-01-12T05:57:17.932Z,7.30
2019-01-12T05:58:17.921Z,5.10
2019-01-12T05:59:17.904Z,6.60
2019-01-12T06:00:17.894Z,6.20
2019-01-12T06:01:17.905Z,6.90
2019-01-12T06:02:17.872Z,6.80
2019-01-12T06:03:17.870Z,6.30
2019-01-12T06:04:17.860Z,7.00
2019-01-12T06:05:17.842Z,4.30
2019-01-12T06:06:17.863Z,5.10
2019-01-12T06:07:17.825Z,5.30
2019-01-12T06:08:17.812Z,7.20
2019-01-12T06:09:17.811Z,5.00
2019-01-12T06:10:17.800Z,5.50
2019-01-12T06:11:17.794Z,5.50
2019-01-12T06:12:17.773Z,6.60
2019-01-12T06:13:17.768Z,6.70
2019-01-12T06:14:17.751Z,7.40
2019-01-12T06:15:17.739Z,6.60
2019-01-12T06:16:17.743Z,5.60
2019-01-12T06:17:17.721Z,6.20
2019-01-12T06:18:17.708Z,5.20
2019-01-12T06:19:17.700Z,5.70
2019-01-12T06:20:17.687Z,6.00
2019-01-12T06:21:17.703Z,4.80
2019-01-12T06:22:17.671Z,5.60
2019-01-12T06:23:17.658Z,5.70
2019-01-12T06:24:17.644Z,6.00
2019-01-12T06:25:17.637Z,5.70
2019-01-12T06:26:17.632Z,5.40
2019-01-12T06:27:17.633Z,5.70
2019-01-12T06:28:17.602Z,4.80
2019-01-12T06:29:17.595Z,6.50
2019-01-12T06:30:17.587Z,6.40
2019-01-12T06:31:17.573Z,5.10
2019-01-12T06:32:17.590Z,6.10
2019-01-12T06:33:17.558Z,6.40
2019-01-12T06:34:17.554Z,7.40
2019-01-12T06:35:17.534Z,5.80
2019-01-12T06:36:17.525Z,5.30
2019-01-12T06:37:17.529Z,6.40
2019-01-12T06:38:17.501Z,7.00
2019-01-12T06:39:17.490Z,5.60
2019-01-12T06:40:17.483Z,5.50
2019-01-12T06:41:17.468Z,4.90
2019-01-12T06:42:17.476Z,9.60
2019-01-12T06:43:17.455Z,5.40
2019-01-12T06:44:17.440Z,5.90
2019-01-12T06:45:17.425Z,5.90
2019-01-12T06:46:17.422Z,5.80
2019-01-12T06:47:17.456Z,5.90
2019-01-12T06:48:17.400Z,5.70
2019-01-12T06:49:17.388Z,5.20
2019-01-12T06:50:17.380Z,4.30
2019-01-12T06:51:17.382Z,5.60
2019-01-12T06:52:17.359Z,4.70
2019-01-12T06:53:17.356Z,5.30
2019-01-12T06:54:17.337Z,5.60
2019-01-12T06:55:17.320Z,7.20
2019-01-12T06:56:17.313Z,6.10
2019-01-12T06:57:17.311Z,6.00
2019-01-12T06:58:17.307Z,7.00
2019-01-12T06:59:17.291Z,5.10
2019-01-12T07:00:17.273Z,5.10
2019-01-12T07:01:17.264Z,4.60
2019-01-12T07:02:17.254Z,5.50
2019-01-12T07:03:17.267Z,6.70
2019-01-12T07:04:17.226Z,6.50
2019-01-12T07:05:17.219Z,6.20
2019-01-12T07:06:17.209Z,6.20
2019-01-12T07:07:17.197Z,7.00
2019-01-12T07:08:17.202Z,7.10
2019-01-12T07:09:17.185Z,5.90
2019-01-12T07:10:17.169Z,7.50
2019-01-12T07:11:17.160Z,4.60
2019-01-12T07:12:17.152Z,5.30
2019-01-12T07:13:17.157Z,6.00
2019-01-12T07:14:17.141Z,6.10
2019-01-12T07:15:17.118Z,6.90
2019-01-12T07:16:17.107Z,6.60
2019-01-12T07:17:17.097Z,6.60
2019-01-12T07:18:17.087Z,4.60
2019-01-12T07:19:17.090Z,5.80
2019-01-12T07:20:17.074Z,7.50
2019-01-12T07:21:17.053Z,7.50
2019-01-12T07:22:17.040Z,6.90
2019-01-12T07:23:17.036Z,6.40
2019-01-12T07:24:17.035Z,6.40
2019-01-12T07:25:17.013Z,6.60
2019-01-12T07:26:17.602Z,5.50
2019-01-12T07:27:16.990Z,5.50
2019-01-12T07:28:16.991Z,6.40
2019-01-12T07:29:16.988Z,5.70
2019-01-12T07:30:16.958Z,5.30
2019-01-12T07:31:16.948Z,6.00
2019-01-12T07:32:16.941Z,7.40
2019-01-12T07:33:16.930Z,5.20
2019-01-12T07:34:16.926Z,8.30
2019-01-12T07:35:16.908Z,7.20
2019-01-12T07:36:16.898Z,9.10
2019-01-12T07:37:16.887Z,7.50
2019-01-12T07:38:16.880Z,8.40
2019-01-12T07:39:16.897Z,7.10
2019-01-12T07:40:16.858Z,7.40
2019-01-12T07:41:16.847Z,7.50
2019-01-12T07:42:16.833Z,5.30
2019-01-12T07:43:16.828Z,7.60
2019-01-12T07:44:16.824Z,6.80
2019-01-12T07:45:16.817Z,8.30
2019-01-12T07:46:16.796Z,6.80
2019-01-12T07:47:16.784Z,6.40
2019-01-12T07:48:16.770Z,7.90
2019-01-12T07:49:16.760Z,6.80
2019-01-12T07:50:16.766Z,5.70
2019-01-12T07:51:16.747Z,7.80
2019-01-12T07:52:16.727Z,7.20
2019-01-12T07:53:16.718Z,6.90
2019-01-12T07:54:16.708Z,6.60
2019-01-12T07:55:16.722Z,6.20
2019-01-12T07:56:16.690Z,8.00
2019-01-12T07:57:16.676Z,9.10
2019-01-12T07:58:16.666Z,6.20
2019-01-12T07:59:16.660Z,6.70
2019-01-12T08:00:16.650Z,8.20
2019-01-12T08:01:16.647Z,13.80
2019-01-12T08:02:16.630Z,9.00
2019-01-12T08:03:16.621Z,11.00
2019-01-12T08:04:16.606Z,23.00
2019-01-12T08:05:16.599Z,12.00
2019-01-12T08:06:16.593Z,15.50
2019-01-12T08:07:16.576Z,12.70
2019-01-12T08:08:16.565Z,12.00
2019-01-12T08:09:16.548Z,16.80
2019-01-12T08:10:16.543Z,11.30
2019-01-12T08:11:16.554Z,7.60
2019-01-12T08:12:16.524Z,10.80
2019-01-12T08:13:16.510Z,17.20
2019-01-12T08:14:16.515Z,10.60
2019-01-12T08:15:16.494Z,12.70
2019-01-12T08:16:16.526Z,13.30
2019-01-12T08:17:16.472Z,12.80
2019-01-12T08:18:16.466Z,10.20
2019-01-12T08:19:16.451Z,11.10
2019-01-12T08:20:16.439Z,10.50
2019-01-12T08:21:16.427Z,11.70
2019-01-12T08:22:16.433Z,8.10
2019-01-12T08:23:16.417Z,10.50
2019-01-12T08:24:16.398Z,12.70
2019-01-12T08:25:16.394Z,13.30
2019-01-12T08:26:16.376Z,10.30
2019-01-12T08:27:16.389Z,10.30
2019-01-12T08:28:16.354Z,9.30
2019-01-12T08:29:16.359Z,9.30
2019-01-12T08:30:16.348Z,8.90
2019-01-12T08:31:16.915Z,9.30
2019-01-12T08:32:16.319Z,8.90
2019-01-12T08:33:16.315Z,10.80
2019-01-12T08:34:16.302Z,9.60
2019-01-12T08:35:16.291Z,9.60
2019-01-12T08:36:16.297Z,11.10
2019-01-12T08:37:16.268Z,8.90
2019-01-12T08:38:16.270Z,10.00
2019-01-12T08:39:16.257Z,8.90
2019-01-12T08:40:16.231Z,15.10
2019-01-12T08:41:16.229Z,14.70
2019-01-12T08:42:16.220Z,8.10
2019-01-12T08:43:16.218Z,15.20
2019-01-12T08:44:16.198Z,10.50
2019-01-12T08:45:16.176Z,9.50
2019-01-12T08:46:16.172Z,10.00
2019-01-12T08:47:16.158Z,12.00
2019-01-12T08:48:16.178Z,9.10
2019-01-12T08:49:16.171Z,9.10
2019-01-12T08:50:16.151Z,12.10
2019-01-12T08:51:16.114Z,11.60
2019-01-12T08:52:16.116Z,10.40
2019-01-12T08:53:16.105Z,9.40
2019-01-12T08:54:16.105Z,12.70
2019-01-12T08:55:16.073Z,7.90
2019-01-12T08:56:16.065Z,9.80
2019-01-12T08:57:16.054Z,12.00
2019-01-12T08:58:16.067Z,12.00
2019-01-12T08:59:16.055Z,8.50
2019-01-12T09:00:16.054Z,7.90
2019-01-12T09:01:16.030Z,10.60
2019-01-12T09:02:16.005Z,11.50
2019-01-12T09:03:15.995Z,8.20
2019-01-12T09:04:16.027Z,12.00
2019-01-12T09:05:15.977Z,10.90
2019-01-12T09:06:15.970Z,12.90
2019-01-12T09:07:15.951Z,11.70
2019-01-12T09:08:15.946Z,12.50
2019-01-12T09:09:15.934Z,13.10
2019-01-12T09:10:15.932Z,14.60
2019-01-12T09:11:15.909Z,9.50
2019-01-12T09:12:15.921Z,13.40
2019-01-12T09:13:15.926Z,14.30
2019-01-12T09:14:15.896Z,14.40
2019-01-12T09:15:15.909Z,16.30
2019-01-12T09:16:15.879Z,14.40
2019-01-12T09:17:15.848Z,14.80
2019-01-12T09:18:15.841Z,13.30
2019-01-12T09:19:15.829Z,19.00
2019-01-12T09:20:15.848Z,17.10
2019-01-12T09:21:15.805Z,15.30
2019-01-12T09:22:15.794Z,13.10
2019-01-12T09:23:15.790Z,15.50
2019-01-12T09:24:15.774Z,14.10
2019-01-12T09:25:15.790Z,12.60
2019-01-12T09:26:15.780Z,17.70
2019-01-12T09:27:15.750Z,16.40
2019-01-12T09:28:15.732Z,14.00
2019-01-12T09:29:15.735Z,14.10
2019-01-12T09:30:15.745Z,16.90
2019-01-12T09:31:15.703Z,16.20
2019-01-12T09:32:15.692Z,15.00
2019-01-12T09:33:15.679Z,16.20
2019-01-12T09:34:15.678Z,16.30
2019-01-12T09:35:15.664Z,22.00
2019-01-12T09:36:15.666Z,24.80
2019-01-12T09:37:15.641Z,27.50
2019-01-12T09:38:15.633Z,23.20
2019-01-12T09:39:15.626Z,25.00
2019-01-12T09:40:15.608Z,19.70
2019-01-12T09:41:15.617Z,21.60
2019-01-12T09:42:15.591Z,18.60
2019-01-12T09:43:15.579Z,19.50
2019-01-12T09:44:15.577Z,16.60
2019-01-12T09:45:15.554Z,15.50
2019-01-12T09:46:15.561Z,19.20
2019-01-12T09:47:15.540Z,16.50
2019-01-12T09:48:15.520Z,19.70
2019-01-12T09:49:15.517Z,23.40
2019-01-12T09:50:15.513Z,16.60
2019-01-12T09:51:15.528Z,17.60
2019-01-12T09:52:15.482Z,17.10
2019-01-12T09:53:15.472Z,20.40
2019-01-12T09:54:15.463Z,20.50
2019-01-12T09:55:15.448Z,13.30
2019-01-12T09:56:15.451Z,15.20
2019-01-12T09:57:15.433Z,17.90
2019-01-12T09:58:15.418Z,16.10
2019-01-12T09:59:15.410Z,16.90
2019-01-12T10:00:15.396Z,16.40
2019-01-12T10:01:15.422Z,14.50
2019-01-12T10:02:15.379Z,16.30
2019-01-12T10:03:15.364Z,15.30
2019-01-12T10:04:15.357Z,14.10
2019-01-12T10:05:15.339Z,13.10
2019-01-12T10:06:15.349Z,12.70
2019-01-12T10:07:15.326Z,13.50
2019-01-12T10:08:15.311Z,13.10
2019-01-12T10:09:15.300Z,14.40
2019-01-12T10:10:15.340Z,10.80
2019-01-12T10:11:15.301Z,11.30
2019-01-12T10:12:15.272Z,12.20
2019-01-12T10:13:15.261Z,11.70
2019-01-12T10:14:15.257Z,14.10
2019-01-12T10:15:15.240Z,12.10
2019-01-12T10:16:15.262Z,11.80
2019-01-12T10:17:15.220Z,11.50
2019-01-12T10:18:15.209Z,12.90
2019-01-12T10:19:15.194Z,16.10
2019-01-12T10:20:15.191Z,14.40
2019-01-12T10:21:15.191Z,10.70
2019-01-12T10:22:15.184Z,11.00
2019-01-12T10:23:15.163Z,13.10
2019-01-12T10:24:15.146Z,14.80
2019-01-12T10:25:15.140Z,10.50
2019-01-12T10:26:15.121Z,11.70
2019-01-12T10:27:15.140Z,12.10
2019-01-12T10:28:15.100Z,13.10
2019-01-12T10:29:15.096Z,13.50
2019-01-12T10:30:15.098Z,13.50
2019-01-12T10:31:15.075Z,12.00
2019-01-12T10:32:15.076Z,9.90
2019-01-12T10:33:15.051Z,11.30
2019-01-12T10:34:15.041Z,11.00
2019-01-12T10:35:15.028Z,11.30
2019-01-12T10:36:15.017Z,13.10
2019-01-12T10:37:15.040Z,10.20
2019-01-12T10:38:14.997Z,9.20
2019-01-12T10:39:17.955Z,12.40
2019-01-12T10:40:14.999Z,10.90
2019-01-12T10:41:14.971Z,12.50
2019-01-12T10:42:14.973Z,11.30
2019-01-12T10:43:14.949Z,8.80
2019-01-12T10:44:14.951Z,12.60
2019-01-12T10:45:14.925Z,11.50
2019-01-12T10:46:14.920Z,10.70
2019-01-12T10:47:14.929Z,9.20
2019-01-12T10:48:14.899Z,9.00
2019-01-12T10:49:14.889Z,9.20
2019-01-12T10:50:14.879Z,7.30
2019-01-12T10:51:14.868Z,11.00
2019-01-12T10:52:14.856Z,8.30
2019-01-12T10:53:14.860Z,7.90
2019-01-12T10:54:14.829Z,8.40
2019-01-12T10:55:14.828Z,6.40
2019-01-12T10:56:14.809Z,8.80
2019-01-12T10:57:14.797Z,9.40
2019-01-12T10:58:14.802Z,9.00
2019-01-12T10:59:14.779Z,8.20
2019-01-12T11:00:14.769Z,8.70
2019-01-12T11:01:14.757Z,8.70
2019-01-12T11:02:15.139Z,9.10
2019-01-12T11:03:14.757Z,9.70
2019-01-12T11:04:14.725Z,10.40
2019-01-12T11:05:14.721Z,9.40
2019-01-12T11:06:14.707Z,7.80
2019-01-12T11:07:14.702Z,8.30
2019-01-12T11:08:14.721Z,7.10
2019-01-12T11:09:14.680Z,10.00
2019-01-12T11:10:14.665Z,9.80
2019-01-12T11:11:14.660Z,9.70
2019-01-12T11:12:14.641Z,9.20
2019-01-12T11:13:14.635Z,7.60
2019-01-12T11:14:14.635Z,9.50
2019-01-12T11:15:14.614Z,6.90
2019-01-12T11:16:14.606Z,9.40
2019-01-12T11:17:14.598Z,8.60
2019-01-12T11:18:14.583Z,9.30
2019-01-12T11:19:14.587Z,7.50
2019-01-12T11:20:14.559Z,6.80
2019-01-12T11:21:14.551Z,7.90
2019-01-12T11:22:14.543Z,9.20
2019-01-12T11:23:14.534Z,9.40
2019-01-12T11:24:14.536Z,9.50
2019-01-12T11:25:14.507Z,9.20
2019-01-12T11:26:14.494Z,6.50
2019-01-12T11:27:14.485Z,7.40
2019-01-12T11:28:14.490Z,7.10
2019-01-12T11:29:14.480Z,9.50
2019-01-12T11:30:14.454Z,9.00
2019-01-12T11:31:19.729Z,7.00
2019-01-12T11:32:15.437Z,8.70
2019-01-12T11:33:14.425Z,7.20
2019-01-12T11:34:14.427Z,5.50
2019-01-12T11:35:14.402Z,5.30
2019-01-12T11:36:14.406Z,8.00
2019-01-12T11:37:14.382Z,7.20
2019-01-12T11:38:14.374Z,9.30
2019-01-12T11:39:14.398Z,8.90
2019-01-12T11:40:14.352Z,8.70
2019-01-12T11:41:14.349Z,6.60
2019-01-12T11:42:14.352Z,8.20
2019-01-12T11:43:14.317Z,5.50
2019-01-12T11:44:14.327Z,6.60
2019-01-12T11:45:14.296Z,6.50
2019-01-12T11:46:14.293Z,8.30
2019-01-12T11:47:14.280Z,4.90
2019-01-12T11:48:14.269Z,7.70
2019-01-12T11:49:14.273Z,7.90
2019-01-12T11:50:14.249Z,6.40
2019-01-12T11:51:14.246Z,7.30
2019-01-12T11:52:14.227Z,6.00
2019-01-12T11:53:14.222Z,6.20
2019-01-12T11:54:14.232Z,5.30
2019-01-12T11:55:14.198Z,8.30
2019-01-12T11:56:14.189Z,6.10
2019-01-12T11:57:19.141Z,6.70
2019-01-12T11:58:15.167Z,8.60
2019-01-12T11:59:14.175Z,9.10
2019-01-12T12:00:14.157Z,6.00
2019-01-12T12:01:14.136Z,6.30
2019-01-12T12:02:14.123Z,8.40
2019-01-12T12:03:14.110Z,7.30
2019-01-12T12:04:14.102Z,7.30
2019-01-12T12:05:14.103Z,5.50
2019-01-12T12:06:14.083Z,7.90
2019-01-12T12:07:14.072Z,6.90
2019-01-12T12:08:14.062Z,6.60
2019-01-12T12:09:14.051Z,6.20
2019-01-12T12:10:14.067Z,6.50
2019-01-12T12:11:14.027Z,5.60
2019-01-12T12:12:14.019Z,5.00
2019-01-12T12:13:14.015Z,4.70
2019-01-12T12:14:14.002Z,5.60
2019-01-12T12:15:14.009Z,7.40
2019-01-12T12:16:13.983Z,7.00
2019-01-12T12:17:13.965Z,4.50
2019-01-12T12:18:13.955Z,6.00
2019-01-12T12:19:13.949Z,4.60
2019-01-12T12:20:13.949Z,5.40
2019-01-12T12:21:13.941Z,5.70
2019-01-12T12:22:13.910Z,6.50
2019-01-12T12:23:13.905Z,5.60
2019-01-12T12:24:13.892Z,6.90
2019-01-12T12:25:13.883Z,5.90
2019-01-12T12:26:13.884Z,3.90
2019-01-12T12:27:13.863Z,5.60
2019-01-12T12:28:13.873Z,5.50
2019-01-12T12:29:13.844Z,4.60
2019-01-12T12:30:13.838Z,5.30
2019-01-12T12:31:13.833Z,4.50
2019-01-12T12:32:13.812Z,7.40
2019-01-12T12:33:13.804Z,5.60
2019-01-12T12:34:13.788Z,5.90
2019-01-12T12:35:13.784Z,5.30
2019-01-12T12:36:13.792Z,7.20
2019-01-12T12:37:13.760Z,8.60
2019-01-12T12:38:13.748Z,7.70
2019-01-12T12:39:13.736Z,7.00
2019-01-12T12:40:13.730Z,7.50
2019-01-12T12:41:13.720Z,6.80
2019-01-12T12:42:13.720Z,7.20
2019-01-12T12:43:13.701Z,7.70
2019-01-12T12:44:13.686Z,7.20
2019-01-12T12:45:13.670Z,6.60
2019-01-12T12:46:13.670Z,5.70
2019-01-12T12:47:13.670Z,6.50
2019-01-12T12:48:13.640Z,7.50
2019-01-12T12:49:13.634Z,8.60
2019-01-12T12:50:13.624Z,8.90
2019-01-12T12:51:13.613Z,7.30
2019-01-12T12:52:13.643Z,4.20
2019-01-12T12:53:13.587Z,7.80
2019-01-12T12:54:13.575Z,8.30
2019-01-12T12:55:13.574Z,9.20
2019-01-12T12:56:13.582Z,8.80
2019-01-12T12:57:13.582Z,7.00
2019-01-12T12:58:13.539Z,8.10
2019-01-12T12:59:13.552Z,8.00
2019-01-12T13:00:13.519Z,9.50
2019-01-12T13:01:13.518Z,7.30
2019-01-12T13:02:13.497Z,8.60
2019-01-12T13:03:13.507Z,5.40
2019-01-12T13:04:13.476Z,10.80
2019-01-12T13:05:13.476Z,7.20
2019-01-12T13:06:13.461Z,8.40
2019-01-12T13:07:13.446Z,8.20
2019-01-12T13:08:13.446Z,4.70
2019-01-12T13:09:13.425Z,5.00
2019-01-12T13:10:13.419Z,4.50
2019-01-12T13:11:13.400Z,7.70
2019-01-12T13:12:13.409Z,5.80
2019-01-12T13:13:13.407Z,7.70